Latest Weather Observations for Lake Macquarie - Cooranbong

IDN60801

Issued at 1:35 pm EST Friday 22 August 2014 (issued every 30 minutes, with the page automatically refreshed every 10 minutes)

About weather observations | Map of weather stations | Latest weather observations for NSW | Other Formats
Station Details ID: 061412 Name: LAKE MACQUARIE AWS Lat: -33.09 Lon: 151.46 Height: 6.0 m
Data from the previous 72 hours. | See also: Recent months at Lake Macquarie - Cooranbong
Date/Time
EST
Temp
°C
App
Temp
°C
Dew
Point
Rel
Hum
%
Delta-T
°C
Wind Press
QNH
hPa
Press
MSL
hPa
Rain
since 9 am
mm
Dir
 
Spd
km/h
Gust
km/h
Spd
kts
Gust
kts
22/01:30pm 17.0 17.1 11.5 70 3.0 SSE 2 6 1 3 1028.9 - 0.8
22/01:00pm 17.3 17.2 12.2 72 2.8 SSW 4 7 2 4 1029.2 1029.2 0.8
22/12:30pm 18.4 17.9 12.2 67 3.4 WSW 6 9 3 5 1029.5 - 0.8
22/12:00pm 17.4 16.9 12.5 73 2.7 SW 7 13 4 7 1030.0 1030.0 0.8
22/11:30am 17.8 17.4 12.9 73 2.7 WSW 7 13 4 7 1030.6 - 0.8
22/11:00am 15.4 15.6 12.0 80 1.8 SSW 2 6 1 3 1031.4 1031.4 0.8
22/10:30am 16.3 16.5 13.0 81 1.8 SW 4 9 2 5 1031.5 - 0.8
22/10:00am 15.0 15.3 13.4 90 0.9 WSW 4 7 2 4 1031.7 1031.7 0.8
22/09:30am 13.9 14.2 13.4 97 0.3 WSW 4 7 2 4 1031.7 - 0.8
22/09:00am 12.9 13.3 12.6 98 0.2 ENE 2 4 1 2 1031.8 1031.8 21.6
22/08:30am 12.4 13.1 12.1 98 0.2 CALM 0 0 0 0 1031.5 - 21.0
22/08:00am 11.4 11.8 11.1 98 0.2 CALM 0 0 0 0 1031.2 1031.2 21.0
22/07:30am 10.4 10.4 9.9 97 0.3 CALM 0 0 0 0 1030.8 - 21.0
22/07:00am 10.4 10.4 9.9 97 0.2 CALM 0 0 0 0 1030.5 1030.5 21.0
22/06:30am 10.4 10.4 9.8 96 0.3 CALM 0 0 0 0 1030.2 - 21.0
22/06:00am 11.1 11.3 10.5 96 0.3 W 0 2 0 1 1029.7 1029.7 21.0
22/05:30am 11.9 12.0 11.4 97 0.3 SW 2 6 1 3 1029.5 - 21.0
22/05:00am 11.9 12.0 11.4 97 0.3 SW 2 9 1 5 1029.4 1029.4 21.0
22/04:30am 11.7 11.4 11.4 98 0.2 WSW 4 7 2 4 1029.1 - 21.0
22/04:00am 10.9 11.1 10.4 97 0.3 CALM 0 0 0 0 1029.2 1029.2 21.0
22/03:30am 11.2 11.4 10.7 97 0.3 CALM 0 0 0 0 1029.0 - 21.0
22/03:00am 11.5 11.8 11.0 97 0.3 CALM 0 0 0 0 1029.0 1029.0 21.0
22/02:30am 12.0 12.5 11.5 97 0.3 CALM 0 0 0 0 1029.2 - 20.8
22/02:00am 12.2 12.7 11.6 96 0.3 CALM 0 0 0 0 1029.5 1029.5 20.8
22/01:30am 12.4 12.2 11.8 96 0.3 W 4 7 2 4 1029.5 - 20.8
22/01:00am 12.2 12.7 11.6 96 0.3 CALM 0 0 0 0 1029.7 1029.7 20.6
22/12:30am 12.5 13.1 12.0 97 0.3 CALM 0 6 0 3 1029.6 - 20.6
22/12:00am 12.6 13.2 12.0 96 0.3 SSW 0 0 0 0 1029.6 1029.6 20.6
 
Date/Time
EST
Temp
°C
App
Temp
°C
Dew
Point
Rel
Hum
%
Delta-T
°C
Wind Press
QNH
hPa
Press
MSL
hPa
Rain
since 9 am
mm
Dir
 
Spd
km/h
Gust
km/h
Spd
kts
Gust
kts
21/11:30pm 12.7 12.6 12.2 97 0.3 SSE 4 9 2 5 1029.7 - 20.6
21/11:00pm 12.5 12.3 11.9 96 0.3 W 4 7 2 4 1029.6 1029.6 15.8
21/10:30pm 12.3 12.8 11.7 96 0.3 CALM 0 0 0 0 1029.6 - 12.2
21/10:00pm 12.2 11.9 11.4 95 0.4 SSW 4 9 2 5 1029.6 1029.6 11.4
21/09:30pm 12.0 11.6 11.2 95 0.4 WSW 4 7 2 4 1029.5 - 11.2
21/09:00pm 11.9 11.9 11.0 94 0.5 SW 2 7 1 4 1029.4 1029.4 11.2
21/08:30pm 11.7 11.2 10.8 94 0.5 SW 4 6 2 3 1029.3 - 11.2
21/08:00pm 12.0 11.6 11.1 94 0.5 SSW 4 7 2 4 1029.2 1029.2 11.2
21/07:30pm 12.1 12.1 11.0 93 0.6 SW 2 6 1 3 1029.1 - 11.2
21/07:00pm 12.3 12.0 11.4 94 0.5 WSW 4 7 2 4 1028.9 1028.9 11.0
21/06:30pm 12.4 12.1 11.3 93 0.6 SW 4 9 2 5 1028.7 - 10.8
21/06:00pm 12.8 12.5 11.5 92 0.7 SSW 4 6 2 3 1028.7 1028.7 8.2
21/05:30pm 13.1 13.8 12.2 94 0.5 CALM 0 6 0 3 1028.2 - 8.0
21/05:00pm 13.3 14.0 12.2 93 0.6 CALM 0 4 0 2 1027.9 1027.9 8.0
21/04:30pm 13.3 13.2 12.2 93 0.6 SSW 4 9 2 5 1027.5 - 7.8
21/04:00pm 13.6 13.6 12.3 92 0.7 SSW 4 9 2 5 1027.2 1027.2 5.8
21/03:30pm 13.5 12.8 12.1 91 0.8 SSE 7 13 4 7 1027.0 - 4.8
21/03:00pm 13.7 12.3 12.1 90 0.9 ESE 11 24 6 13 1026.7 1026.7 3.0
21/02:30pm 15.0 14.4 11.8 81 1.7 SSW 6 13 3 7 1026.5 - 0.4
21/02:00pm 15.6 14.7 10.6 72 2.6 S 6 9 3 5 1026.7 1026.7 0.2
21/01:30pm 16.9 14.8 9.8 63 3.7 SSE 11 22 6 12 1026.8 - 0.2
21/01:00pm 16.6 15.3 9.8 64 3.5 S 7 13 4 7 1027.0 1027.0 0.2
21/12:30pm 16.2 15.3 10.7 70 2.9 S 6 11 3 6 1027.4 - 0.2
21/12:00pm 15.0 15.6 12.0 82 1.6 CALM 0 4 0 2 1027.8 1027.8 0.2
21/11:30am 16.3 15.4 10.6 69 3.0 S 6 9 3 5 1028.1 - 0.0
21/11:00am 15.8 14.9 10.8 72 2.6 SSW 6 13 3 7 1028.5 1028.5 0.0
21/10:30am 14.8 13.9 10.8 77 2.1 SW 6 13 3 7 1028.7 - 0.0
21/10:00am 13.5 12.6 10.5 82 1.6 SW 6 11 3 6 1028.9 1028.9 0.0
21/09:30am 12.7 11.7 10.4 86 1.2 SW 6 9 3 5 1028.9 - 0.0
21/09:00am 13.1 11.8 10.1 82 1.5 SW 7 11 4 6 1028.8 1028.8 4.4
21/08:30am 12.3 11.6 10.2 87 1.1 WSW 4 7 2 4 1028.7 - 4.4
21/08:00am 11.0 10.6 9.9 93 0.6 SW 2 7 1 4 1028.5 1028.5 4.4
21/07:30am 10.5 9.8 9.9 96 0.3 SW 4 7 2 4 1028.2 - 4.4
21/07:00am 8.6 7.8 8.0 96 0.3 SSW 2 4 1 2 1028.0 1028.0 4.4
21/06:30am 8.8 7.6 8.2 96 0.3 WSW 4 7 2 4 1027.6 - 4.4
21/06:00am 8.7 8.2 7.8 94 0.4 CALM 0 0 0 0 1027.3 1027.3 4.4
21/05:30am 9.2 8.4 8.3 94 0.4 WSW 2 6 1 3 1027.0 - 4.4
21/05:00am 9.3 8.8 7.9 91 0.7 CALM 0 6 0 3 1026.8 1026.8 4.4
21/04:30am 10.7 9.7 9.0 89 0.8 WSW 4 11 2 6 1026.7 - 4.4
21/04:00am 10.4 9.9 9.2 92 0.6 SW 2 7 1 4 1026.8 1026.8 4.4
21/03:30am 10.3 9.4 9.2 93 0.5 SW 4 7 2 4 1026.6 - 4.4
21/03:00am 9.3 8.6 8.4 94 0.4 SW 2 6 1 3 1026.6 1026.6 4.4
21/02:30am 9.7 9.1 8.9 95 0.4 WSW 2 4 1 2 1026.6 - 4.4
21/02:00am 9.4 9.1 8.5 94 0.4 CALM 0 4 0 2 1026.7 1026.7 4.2
21/01:30am 9.3 8.9 8.1 92 0.6 CALM 0 2 0 1 1026.6 - 4.2
21/01:00am 10.5 10.4 9.4 93 0.5 CALM 0 4 0 2 1026.8 1026.8 4.2
21/12:30am 11.1 10.8 10.2 94 0.5 WSW 2 6 1 3 1026.9 - 4.2
21/12:00am 11.3 11.0 10.0 92 0.7 WSW 2 9 1 5 1026.8 1026.8 4.2
 
Date/Time
EST
Temp
°C
App
Temp
°C
Dew
Point
Rel
Hum
%
Delta-T
°C
Wind Press
QNH
hPa
Press
MSL
hPa
Rain
since 9 am
mm
Dir
 
Spd
km/h
Gust
km/h
Spd
kts
Gust
kts
20/11:30pm 11.4 10.5 10.5 94 0.5 WSW 6 11 3 6 1026.9 - 4.2
20/11:00pm 11.1 10.4 10.2 94 0.5 S 4 9 2 5 1027.2 1027.2 2.6
20/10:30pm 10.3 10.0 8.7 90 0.8 CALM 0 0 0 0 1026.8 - 0.2
20/10:00pm 11.4 10.2 9.5 88 0.9 WSW 6 9 3 5 1026.8 1026.8 0.2
20/09:30pm 11.9 11.1 9.8 87 1.1 SW 4 7 2 4 1027.0 - 0.2
20/09:00pm 11.0 10.9 9.4 90 0.8 CALM 0 2 0 1 1026.9 1026.9 0.0
20/08:30pm 11.3 11.2 9.6 89 0.9 CALM 0 0 0 0 1026.7 - 0.0
20/08:00pm 11.4 11.2 9.0 85 1.2 CALM 0 0 0 0 1026.5 1026.5 0.0
20/07:30pm 12.1 12.0 9.3 83 1.4 CALM 0 0 0 0 1026.4 - 0.0
20/07:00pm 12.6 12.3 8.5 76 2.0 CALM 0 0 0 0 1026.0 1026.0 0.0
20/06:30pm 13.0 12.6 8.3 73 2.3 CALM 0 6 0 3 1025.8 - 0.0
20/06:00pm 13.3 12.5 8.2 71 2.5 SW 2 6 1 3 1025.6 1025.6 0.0
20/05:30pm 13.7 12.2 8.3 70 2.7 S 6 15 3 8 1025.4 - 0.0
20/05:00pm 14.1 12.4 8.3 68 2.9 S 7 15 4 8 1025.1 1025.1 0.0
20/04:30pm 14.4 12.2 7.9 65 3.2 S 9 17 5 9 1024.8 - 0.0
20/04:00pm 14.8 13.2 7.8 63 3.5 SSW 6 15 3 8 1024.5 1024.5 0.0
20/03:30pm 14.8 13.0 7.8 63 3.5 SSW 7 15 4 8 1024.6 - 0.0
20/03:00pm 14.3 12.5 7.8 65 3.2 SSE 7 13 4 7 1024.5 1024.5 0.0
20/02:30pm 14.9 13.1 7.9 63 3.5 S 7 15 4 8 1024.2 - 0.0
20/02:00pm 14.8 13.2 8.1 64 3.3 SSW 6 11 3 6 1024.2 1024.2 0.0
20/01:30pm 15.0 13.4 8.0 63 3.5 S 6 15 3 8 1024.1 - 0.0
20/01:00pm 14.9 13.2 8.2 64 3.3 S 7 15 4 8 1024.1 1024.1 0.0
20/12:30pm 14.6 12.6 8.5 67 3.1 S 9 19 5 10 1024.5 - 0.0
20/12:00pm 15.1 13.3 9.5 69 2.9 WSW 9 26 5 14 1024.8 1024.8 0.0
20/11:30am 13.2 11.4 9.3 77 2.0 SSW 9 17 5 9 1025.2 - 0.0
20/11:00am 15.6 13.5 8.1 61 3.8 SSW 9 19 5 10 1025.0 1025.0 0.0
20/10:30am 15.7 13.6 8.2 61 3.8 SSW 9 20 5 11 1025.0 - 0.0
20/10:00am 14.9 12.3 7.9 63 3.5 WSW 11 22 6 12 1024.8 1024.8 0.0
20/09:30am 14.4 11.4 7.5 63 3.4 SSW 13 26 7 14 1024.7 - 0.0
20/09:00am 14.2 11.8 7.0 62 3.5 SW 9 19 5 10 1024.2 1024.2 1.0
20/08:30am 13.2 11.4 7.0 66 3.0 SW 6 17 3 9 1024.1 - 1.0
20/08:00am 12.9 10.8 6.5 65 3.0 SW 7 17 4 9 1023.9 1023.9 1.0
20/07:30am 12.1 10.5 6.2 67 2.8 WSW 4 13 2 7 1023.7 - 1.0
20/07:00am 11.6 9.9 5.7 67 2.7 SW 4 13 2 7 1023.5 1023.5 1.0
20/06:30am 11.5 9.3 5.4 66 2.8 SW 6 13 3 7 1023.1 - 1.0
20/06:00am 11.6 9.8 5.5 66 2.8 SW 4 15 2 8 1022.7 1022.7 1.0
20/05:30am 11.7 9.9 5.3 65 2.9 WSW 4 9 2 5 1022.4 - 1.0
20/05:00am 11.4 9.0 5.3 66 2.8 SW 7 15 4 8 1022.0 1022.0 1.0
20/04:30am 11.3 8.8 5.0 65 2.9 SW 7 19 4 10 1021.7 - 1.0
20/04:00am 11.8 9.4 5.2 64 3.0 SW 7 17 4 9 1021.4 1021.4 1.0
20/03:30am 12.1 9.8 5.5 64 3.1 SW 7 13 4 7 1021.0 - 1.0
20/03:00am 12.0 9.6 5.4 64 3.0 SW 7 19 4 10 1021.0 1021.0 1.0
20/02:30am 12.0 9.9 5.6 65 3.0 SSW 6 19 3 10 1021.1 - 1.0
20/02:00am 12.1 9.0 5.7 65 3.0 SW 11 22 6 12 1020.9 1020.9 1.0
20/01:30am 12.3 10.0 5.9 65 3.0 SW 7 15 4 8 1021.0 - 1.0
20/01:00am 12.7 10.1 6.3 65 3.0 SW 9 19 5 10 1021.0 1021.0 1.0
20/12:30am 12.6 10.4 6.4 66 2.9 SW 7 17 4 9 1020.8 - 1.0
20/12:00am 12.2 10.3 6.5 68 2.7 SW 6 15 3 8 1020.8 1020.8 1.0
 
Date/Time
EST
Temp
°C
App
Temp
°C
Dew
Point
Rel
Hum
%
Delta-T
°C
Wind Press
QNH
hPa
Press
MSL
hPa
Rain
since 9 am
mm
Dir
 
Spd
km/h
Gust
km/h
Spd
kts
Gust
kts
19/11:30pm 12.4 10.3 6.7 68 2.7 SW 7 15 4 8 1020.8 - 1.0
19/11:00pm 12.6 10.2 6.9 68 2.7 SW 9 19 5 10 1020.9 1020.9 1.0
19/10:30pm 12.9 10.6 7.4 69 2.7 SW 9 20 5 11 1020.8 - 1.0
19/10:00pm 13.0 10.3 7.5 69 2.7 SW 11 24 6 13 1020.7 1020.7 1.0
19/09:30pm 13.1 10.8 7.5 69 2.7 SW 9 22 5 12 1020.5 - 1.0
19/09:00pm 13.0 11.2 8.1 72 2.4 WSW 7 13 4 7 1020.5 1020.5 1.0
19/08:30pm 13.0 10.6 8.5 74 2.2 SSW 11 22 6 12 1020.3 - 1.0
19/08:00pm 13.0 11.1 8.9 76 2.1 SW 9 24 5 13 1020.1 1020.1 1.0
19/07:30pm 12.9 11.4 9.2 78 1.9 SW 7 15 4 8 1019.7 - 1.0
19/07:00pm 12.8 11.0 9.6 81 1.6 SW 9 19 5 10 1019.3 1019.3 1.0
19/06:30pm 13.2 11.8 9.6 79 1.8 SSW 7 20 4 11 1019.0 - 0.8
19/06:00pm 13.5 11.7 9.6 77 2.0 SW 9 17 5 9 1018.6 1018.6 0.8
19/05:30pm 13.7 12.0 9.7 77 2.1 SW 9 24 5 13 1017.8 - 0.8
19/05:00pm 14.4 12.8 10.2 76 2.2 SW 9 24 5 13 1017.4 1017.4 0.8
19/04:30pm 14.9 13.3 10.3 74 2.4 SW 9 22 5 12 1016.9 - 0.8
19/04:00pm 15.4 12.9 9.7 69 3.0 SSW 13 32 7 17 1016.4 1016.4 0.8
19/03:30pm 15.6 13.2 10.2 70 2.8 S 13 32 7 17 1016.2 - 0.8
19/03:00pm 15.7 14.3 10.9 73 2.6 SSW 9 26 5 14 1015.8 1015.8 0.8
19/02:30pm 15.6 15.0 12.2 80 1.9 SSW 7 17 4 9 1015.6 - 0.8
19/02:00pm 15.1 12.8 10.3 73 2.5 SW 13 30 7 16 1015.5 1015.5 0.6

Other Formats:

Comma delimited format used in spreadsheet applications
http://www.bom.gov.au/fwo/IDN60801/IDN60801.95767.axf

JavaScript Object Notation format (JSON) in row-major order
http://www.bom.gov.au/fwo/IDN60801/IDN60801.95767.json